createdAt,value
2023-03-11T00:00:04.051Z,0.00
2023-03-11T00:00:33.261Z,0.00
2023-03-11T00:01:05.167Z,0.00
2023-03-11T00:01:37.863Z,0.00
2023-03-11T00:02:09.238Z,0.00
2023-03-11T00:02:34.803Z,0.00
2023-03-11T00:02:57.555Z,0.00
2023-03-11T00:03:29.236Z,0.00
2023-03-11T00:04:01.178Z,0.00
2023-03-11T00:04:33.207Z,0.00
2023-03-11T00:05:05.753Z,0.00
2023-03-11T00:05:37.337Z,0.00
2023-03-11T00:06:09.178Z,0.00
2023-03-11T00:06:34.799Z,0.00
2023-03-11T00:06:57.147Z,0.00
2023-03-11T00:07:29.176Z,0.00
2023-03-11T00:08:02.432Z,0.00
2023-03-11T00:08:33.276Z,0.00
2023-03-11T00:09:05.220Z,0.00
2023-03-11T00:09:37.133Z,0.00
2023-03-11T00:10:09.454Z,0.00
2023-03-11T00:10:34.853Z,0.00
2023-03-11T00:10:57.351Z,0.00
2023-03-11T00:11:29.144Z,0.00
2023-03-11T00:12:01.177Z,0.00
2023-03-11T00:12:33.684Z,0.00
2023-03-11T00:13:05.194Z,0.00
2023-03-11T00:13:37.238Z,0.00
2023-03-11T00:14:09.171Z,0.00
2023-03-11T00:14:35.415Z,0.00
2023-03-11T00:14:57.161Z,0.00
2023-03-11T00:15:29.679Z,0.00
2023-03-11T00:16:03.432Z,0.00
2023-03-11T00:16:33.313Z,0.00
2023-03-11T00:17:05.221Z,0.00
2023-03-11T00:17:37.969Z,0.00
2023-03-11T00:18:09.146Z,0.00
2023-03-11T00:18:34.784Z,0.00
2023-03-11T00:18:57.125Z,0.00
2023-03-11T00:19:29.145Z,0.00
2023-03-11T00:20:03.755Z,0.00
2023-03-11T00:20:33.893Z,0.00
2023-03-11T00:21:05.149Z,0.00
2023-03-11T00:21:37.132Z,0.00
2023-03-11T00:22:09.751Z,0.00
2023-03-11T00:22:34.849Z,0.00
2023-03-11T00:22:57.187Z,0.00
2023-03-11T00:23:29.193Z,0.00
2023-03-11T00:24:02.406Z,0.00
2023-03-11T00:24:33.237Z,0.00
2023-03-11T00:25:05.660Z,0.00
2023-03-11T00:25:37.480Z,0.00
2023-03-11T00:26:09.430Z,0.00
2023-03-11T00:26:35.004Z,0.00
2023-03-11T00:26:57.130Z,0.00
2023-03-11T00:27:29.189Z,0.00
2023-03-11T00:28:01.198Z,0.00
2023-03-11T00:28:34.485Z,0.00
2023-03-11T00:29:05.185Z,0.00
2023-03-11T00:29:37.149Z,0.00
2023-03-11T00:30:11.131Z,0.00
2023-03-11T00:30:35.459Z,0.00
2023-03-11T00:30:57.553Z,0.00
2023-03-11T00:31:29.194Z,0.00
2023-03-11T00:32:01.205Z,0.00
2023-03-11T00:32:34.088Z,0.00
2023-03-11T00:33:05.218Z,0.00
2023-03-11T00:33:37.858Z,0.00
2023-03-11T00:34:09.161Z,0.00
2023-03-11T00:34:34.759Z,0.00
2023-03-11T00:34:57.127Z,0.00
2023-03-11T00:35:29.455Z,0.00
2023-03-11T00:36:01.610Z,0.00
2023-03-11T00:36:33.680Z,0.00
2023-03-11T00:37:05.197Z,0.00
2023-03-11T00:37:37.105Z,0.00
2023-03-11T00:38:09.134Z,0.00
2023-03-11T00:38:34.819Z,0.00
2023-03-11T00:38:57.250Z,0.00
2023-03-11T00:39:29.189Z,0.00
2023-03-11T00:40:04.033Z,0.00
2023-03-11T00:40:33.289Z,0.00
2023-03-11T00:41:05.196Z,0.00
2023-03-11T00:41:37.163Z,0.00
2023-03-11T00:42:09.173Z,0.00
2023-03-11T00:42:35.182Z,0.00
2023-03-11T00:42:57.154Z,0.00
2023-03-11T00:43:29.204Z,0.00
2023-03-11T00:44:01.201Z,0.00
2023-03-11T00:44:33.231Z,0.00
2023-03-11T00:45:05.734Z,0.00
2023-03-11T00:45:37.285Z,0.00
2023-03-11T00:46:09.421Z,0.00
2023-03-11T00:46:34.932Z,0.00
2023-03-11T00:46:57.202Z,0.00
2023-03-11T00:47:29.189Z,0.00
2023-03-11T00:48:01.183Z,0.00
2023-03-11T00:48:33.243Z,0.00
2023-03-11T00:49:05.273Z,0.00
2023-03-11T00:49:37.988Z,0.00
2023-03-11T00:50:09.468Z,0.00
2023-03-11T00:50:34.784Z,0.00
2023-03-11T00:50:57.410Z,0.00
2023-03-11T00:51:29.159Z,0.00
2023-03-11T00:52:01.213Z,0.00
2023-03-11T00:52:33.276Z,0.00
2023-03-11T00:53:05.202Z,0.00
2023-03-11T00:53:37.162Z,0.00
2023-03-11T00:54:09.140Z,0.00
2023-03-11T00:54:34.808Z,0.00
2023-03-11T00:54:57.182Z,0.00
2023-03-11T00:55:29.492Z,0.00
2023-03-11T00:56:02.422Z,0.00
2023-03-11T00:56:33.289Z,0.00
2023-03-11T00:57:05.214Z,0.00
2023-03-11T00:57:37.203Z,0.00
2023-03-11T00:58:09.182Z,0.00
2023-03-11T00:58:34.793Z,0.00
2023-03-11T00:58:57.167Z,0.00
2023-03-11T00:59:29.178Z,0.00
2023-03-11T01:00:04.058Z,0.00
2023-03-11T01:00:33.296Z,0.00
2023-03-11T01:01:05.227Z,0.00
2023-03-11T01:01:37.211Z,0.00
2023-03-11T01:02:09.171Z,0.00
2023-03-11T01:02:34.800Z,0.00
2023-03-11T01:02:57.118Z,0.00
2023-03-11T01:03:29.172Z,0.00
2023-03-11T01:04:01.208Z,0.00
2023-03-11T01:04:33.309Z,0.00
2023-03-11T01:05:05.500Z,0.00
2023-03-11T01:05:38.085Z,0.00
2023-03-11T01:06:09.171Z,0.00
2023-03-11T01:06:44.758Z,0.00
2023-03-11T01:06:57.164Z,0.00
2023-03-11T01:07:29.177Z,0.00
2023-03-11T01:08:01.207Z,0.00
2023-03-11T01:08:33.266Z,0.00
2023-03-11T01:09:05.177Z,0.00
2023-03-11T01:09:37.201Z,0.00
2023-03-11T01:10:09.539Z,0.00
2023-03-11T01:10:34.814Z,0.00
2023-03-11T01:10:57.453Z,0.00
2023-03-11T01:11:29.192Z,0.00
2023-03-11T01:12:02.617Z,0.00
2023-03-11T01:12:33.299Z,0.00
2023-03-11T01:13:05.189Z,0.00
2023-03-11T01:13:37.184Z,0.00
2023-03-11T01:14:09.202Z,0.00
2023-03-11T01:14:34.761Z,0.00
2023-03-11T01:14:57.167Z,0.00
2023-03-11T01:15:29.697Z,0.00
2023-03-11T01:16:03.604Z,0.00
2023-03-11T01:16:33.258Z,0.00
2023-03-11T01:17:05.192Z,0.00
2023-03-11T01:17:37.464Z,0.00
2023-03-11T01:18:09.630Z,0.00
2023-03-11T01:18:34.770Z,0.00
2023-03-11T01:18:57.197Z,0.00
2023-03-11T01:19:29.207Z,0.00
2023-03-11T01:20:03.576Z,0.00
2023-03-11T01:20:33.284Z,0.00
2023-03-11T01:21:05.228Z,0.00
2023-03-11T01:21:38.100Z,0.00
2023-03-11T01:22:09.167Z,0.00
2023-03-11T01:22:35.170Z,0.00
2023-03-11T01:22:57.145Z,0.00
2023-03-11T01:23:29.245Z,0.00
2023-03-11T01:24:01.211Z,0.00
2023-03-11T01:24:33.306Z,0.00
2023-03-11T01:25:05.504Z,0.00
2023-03-11T01:25:37.204Z,0.00
2023-03-11T01:26:09.181Z,0.00
2023-03-11T01:26:34.772Z,0.00
2023-03-11T01:26:57.193Z,0.00
2023-03-11T01:27:29.219Z,0.00
2023-03-11T01:28:02.828Z,0.00
2023-03-11T01:28:33.284Z,0.00
2023-03-11T01:29:05.208Z,0.00
2023-03-11T01:29:37.221Z,0.00
2023-03-11T01:30:11.239Z,0.00
2023-03-11T01:30:34.775Z,0.00
2023-03-11T01:30:57.504Z,0.00
2023-03-11T01:31:29.310Z,0.00
2023-03-11T01:32:01.182Z,0.00
2023-03-11T01:32:33.353Z,0.00
2023-03-11T01:33:05.208Z,0.00
2023-03-11T01:33:37.318Z,0.00
2023-03-11T01:34:09.224Z,0.00
2023-03-11T01:34:34.739Z,0.00
2023-03-11T01:34:57.158Z,0.00
2023-03-11T01:35:29.612Z,0.00
2023-03-11T01:36:01.272Z,0.00
2023-03-11T01:36:33.318Z,0.00
2023-03-11T01:37:05.210Z,0.00
2023-03-11T01:37:38.025Z,0.00
2023-03-11T01:38:09.222Z,0.00
2023-03-11T01:38:34.864Z,0.00
2023-03-11T01:38:57.176Z,0.00
2023-03-11T01:39:29.192Z,0.00
2023-03-11T01:40:03.669Z,0.00
2023-03-11T01:40:33.658Z,0.00
2023-03-11T01:41:05.629Z,0.00
2023-03-11T01:41:37.253Z,0.00
2023-03-11T01:42:09.391Z,0.00
2023-03-11T01:42:34.862Z,0.00
2023-03-11T01:42:58.034Z,0.00
2023-03-11T01:43:29.203Z,0.00
2023-03-11T01:44:02.607Z,0.00
2023-03-11T01:44:33.574Z,0.00
2023-03-11T01:45:06.199Z,0.00
2023-03-11T01:45:37.410Z,0.00
2023-03-11T01:46:09.572Z,0.00
2023-03-11T01:46:35.050Z,0.00
2023-03-11T01:46:57.323Z,0.00
2023-03-11T01:47:29.375Z,0.00
2023-03-11T01:48:01.427Z,0.00
2023-03-11T01:48:33.458Z,0.00
2023-03-11T01:49:05.220Z,0.00
2023-03-11T01:49:37.277Z,0.00
2023-03-11T01:50:09.533Z,0.00
2023-03-11T01:50:35.028Z,0.00
2023-03-11T01:50:57.712Z,0.00
2023-03-11T01:51:29.221Z,0.00
2023-03-11T01:52:01.267Z,0.00
2023-03-11T01:52:33.346Z,0.00
2023-03-11T01:53:05.241Z,0.00
2023-03-11T01:53:37.974Z,0.00
2023-03-11T01:54:09.202Z,0.00
2023-03-11T01:54:34.786Z,0.00
2023-03-11T01:54:57.325Z,0.00
2023-03-11T01:55:29.554Z,0.00
2023-03-11T01:56:01.275Z,0.00
2023-03-11T01:56:33.315Z,0.00
2023-03-11T01:57:05.272Z,0.00
2023-03-11T01:57:37.221Z,0.00
2023-03-11T01:58:09.282Z,0.00
2023-03-11T01:58:34.823Z,0.00
2023-03-11T01:58:57.272Z,0.00
2023-03-11T01:59:29.241Z,0.00
2023-03-11T02:00:04.382Z,0.00
2023-03-11T02:00:33.398Z,0.00
2023-03-11T02:01:05.352Z,0.00
2023-03-11T02:01:38.106Z,0.00
2023-03-11T02:02:09.239Z,0.00
2023-03-11T02:02:34.872Z,0.00
2023-03-11T02:02:57.285Z,0.00
2023-03-11T02:03:29.250Z,0.00
2023-03-11T02:04:01.339Z,0.00
2023-03-11T02:04:33.721Z,0.00
2023-03-11T02:05:05.535Z,0.00
2023-03-11T02:05:37.212Z,0.00
2023-03-11T02:06:09.248Z,0.00
2023-03-11T02:06:34.791Z,0.00
2023-03-11T02:06:57.213Z,0.00
2023-03-11T02:07:29.276Z,0.00
2023-03-11T02:08:01.315Z,0.00
2023-03-11T02:08:33.387Z,0.00
2023-03-11T02:09:05.267Z,0.00
2023-03-11T02:09:38.382Z,0.00
2023-03-11T02:10:09.576Z,0.00
2023-03-11T02:10:34.792Z,0.00
2023-03-11T02:10:57.488Z,0.00
2023-03-11T02:11:29.224Z,0.00
2023-03-11T02:12:01.246Z,0.00
2023-03-11T02:12:33.355Z,0.00
2023-03-11T02:13:05.252Z,0.00
2023-03-11T02:13:37.245Z,0.00
2023-03-11T02:14:09.225Z,0.00
2023-03-11T02:14:34.832Z,0.00
2023-03-11T02:14:57.255Z,0.00
2023-03-11T02:15:29.833Z,0.00
2023-03-11T02:16:04.178Z,0.00
2023-03-11T02:16:33.484Z,0.00
2023-03-11T02:17:05.271Z,0.00
2023-03-11T02:17:37.247Z,0.00
2023-03-11T02:18:09.302Z,0.00
2023-03-11T02:18:35.194Z,0.00
2023-03-11T02:18:57.290Z,0.00
2023-03-11T02:19:29.257Z,0.00
2023-03-11T02:20:04.143Z,0.00
2023-03-11T02:20:33.352Z,0.00
2023-03-11T02:21:05.283Z,0.00
2023-03-11T02:21:37.254Z,0.00
2023-03-11T02:22:09.235Z,0.00
2023-03-11T02:22:34.772Z,0.00
2023-03-11T02:22:57.257Z,0.00
2023-03-11T02:23:29.259Z,0.00
2023-03-11T02:24:01.261Z,0.00
2023-03-11T02:24:33.419Z,0.00
2023-03-11T02:25:05.663Z,0.00
2023-03-11T02:25:38.039Z,0.00
2023-03-11T02:26:09.257Z,0.00
2023-03-11T02:26:34.813Z,0.00
2023-03-11T02:26:57.241Z,0.00
2023-03-11T02:27:29.275Z,0.00
2023-03-11T02:28:01.278Z,0.00
2023-03-11T02:28:33.367Z,0.00
2023-03-11T02:29:05.251Z,0.00
2023-03-11T02:29:37.269Z,0.00
2023-03-11T02:30:11.600Z,0.00
2023-03-11T02:30:34.868Z,0.00
2023-03-11T02:30:57.542Z,0.00
2023-03-11T02:31:29.321Z,0.00
2023-03-11T02:32:02.321Z,0.00
2023-03-11T02:32:33.532Z,0.00
2023-03-11T02:33:05.238Z,0.00
2023-03-11T02:33:37.252Z,0.00
2023-03-11T02:34:09.305Z,0.00
2023-03-11T02:34:34.758Z,0.00
2023-03-11T02:34:57.197Z,0.00
2023-03-11T02:35:29.499Z,0.00
2023-03-11T02:36:01.228Z,0.00
2023-03-11T02:36:33.273Z,0.00
2023-03-11T02:37:05.241Z,0.00
2023-03-11T02:37:37.185Z,0.00
2023-03-11T02:38:09.240Z,0.00
2023-03-11T02:38:34.766Z,0.00
2023-03-11T02:38:57.718Z,0.00
2023-03-11T02:39:29.278Z,0.00
2023-03-11T02:40:03.674Z,0.00
2023-03-11T02:40:33.445Z,0.00
2023-03-11T02:41:05.209Z,0.00
2023-03-11T02:41:37.922Z,0.00
2023-03-11T02:42:09.291Z,0.00
2023-03-11T02:42:34.769Z,0.00
2023-03-11T02:42:57.176Z,0.00
2023-03-11T02:43:29.212Z,0.00
2023-03-11T02:44:01.223Z,0.00
2023-03-11T02:44:33.327Z,0.00
2023-03-11T02:45:05.732Z,0.00
2023-03-11T02:45:37.202Z,0.00
2023-03-11T02:46:09.942Z,0.00
2023-03-11T02:46:34.787Z,0.00
2023-03-11T02:46:57.244Z,0.00
2023-03-11T02:47:29.219Z,0.00
2023-03-11T02:48:02.569Z,0.00
2023-03-11T02:48:33.358Z,0.00
2023-03-11T02:49:05.273Z,0.00
2023-03-11T02:49:37.292Z,0.00
2023-03-11T02:50:09.578Z,0.00
2023-03-11T02:50:34.733Z,0.00
2023-03-11T02:50:57.451Z,0.00
2023-03-11T02:51:29.231Z,0.00
2023-03-11T02:52:01.211Z,0.00
2023-03-11T02:52:33.325Z,0.00
2023-03-11T02:53:05.219Z,0.00
2023-03-11T02:53:37.185Z,0.00
2023-03-11T02:54:09.328Z,0.00
2023-03-11T02:54:34.762Z,0.00
2023-03-11T02:54:57.222Z,0.00
2023-03-11T02:55:29.541Z,0.00
2023-03-11T02:56:01.196Z,0.00
2023-03-11T02:56:33.866Z,0.00
2023-03-11T02:57:05.264Z,0.00
2023-03-11T02:57:37.941Z,0.00
2023-03-11T02:58:09.207Z,0.00
2023-03-11T02:58:34.737Z,0.00
2023-03-11T02:58:57.198Z,0.00
2023-03-11T02:59:29.230Z,0.00
2023-03-11T03:00:04.081Z,0.00
2023-03-11T03:00:33.587Z,0.00
2023-03-11T03:01:05.276Z,0.00
2023-03-11T03:01:37.508Z,0.00
2023-03-11T03:02:09.280Z,0.00
2023-03-11T03:02:34.745Z,0.00
2023-03-11T03:02:57.247Z,0.00
2023-03-11T03:03:29.256Z,0.00
2023-03-11T03:04:03.551Z,0.00
2023-03-11T03:04:33.417Z,0.00
2023-03-11T03:05:05.754Z,0.00
2023-03-11T03:05:37.259Z,0.00
2023-03-11T03:06:09.285Z,0.00
2023-03-11T03:06:34.750Z,0.00
2023-03-11T03:06:57.209Z,0.00
2023-03-11T03:07:29.195Z,0.00
2023-03-11T03:08:01.197Z,0.00
2023-03-11T03:08:33.420Z,0.00
2023-03-11T03:09:05.198Z,0.00
2023-03-11T03:09:37.260Z,0.00
2023-03-11T03:10:09.534Z,0.00
2023-03-11T03:10:34.738Z,0.00
2023-03-11T03:10:57.436Z,0.00
2023-03-11T03:11:29.255Z,0.00
2023-03-11T03:12:01.563Z,0.00
2023-03-11T03:12:33.374Z,0.00
2023-03-11T03:13:05.213Z,0.00
2023-03-11T03:13:38.248Z,0.00
2023-03-11T03:14:09.235Z,0.00
2023-03-11T03:14:34.747Z,0.00
2023-03-11T03:14:57.207Z,0.00
2023-03-11T03:15:29.758Z,0.00
2023-03-11T03:16:03.458Z,0.00
2023-03-11T03:16:33.539Z,0.00
2023-03-11T03:17:05.367Z,0.00
2023-03-11T03:17:37.286Z,0.00
2023-03-11T03:18:09.242Z,0.00
2023-03-11T03:18:34.906Z,0.00
2023-03-11T03:18:57.249Z,0.00
2023-03-11T03:19:29.251Z,0.00
2023-03-11T03:20:04.045Z,0.00
2023-03-11T03:20:33.465Z,0.00
2023-03-11T03:21:05.277Z,0.00
2023-03-11T03:21:37.225Z,0.00
2023-03-11T03:22:09.244Z,0.00
2023-03-11T03:22:34.739Z,0.00
2023-03-11T03:22:57.207Z,0.00
2023-03-11T03:23:29.285Z,0.00
2023-03-11T03:24:01.235Z,0.00
2023-03-11T03:24:33.406Z,0.00
2023-03-11T03:25:05.564Z,0.00
2023-03-11T03:25:37.234Z,0.00
2023-03-11T03:26:09.217Z,0.00
2023-03-11T03:26:35.133Z,0.00
2023-03-11T03:26:57.248Z,0.00
2023-03-11T03:27:29.239Z,0.00
2023-03-11T03:28:01.240Z,0.00
2023-03-11T03:28:33.430Z,0.00
2023-03-11T03:29:05.285Z,0.00
2023-03-11T03:29:37.957Z,0.00
2023-03-11T03:30:11.570Z,0.00
2023-03-11T03:30:35.470Z,0.00
2023-03-11T03:30:58.084Z,0.00
2023-03-11T03:31:29.281Z,0.00
2023-03-11T03:32:01.361Z,0.00
2023-03-11T03:32:33.848Z,0.00
2023-03-11T03:33:05.202Z,0.00
2023-03-11T03:33:37.296Z,0.00
2023-03-11T03:34:09.979Z,0.00
2023-03-11T03:34:34.731Z,0.00
2023-03-11T03:34:57.806Z,0.00
2023-03-11T03:35:29.575Z,0.00
2023-03-11T03:36:02.681Z,0.00
2023-03-11T03:36:33.431Z,0.00
2023-03-11T03:37:05.245Z,0.00
2023-03-11T03:37:37.266Z,0.00
2023-03-11T03:38:09.280Z,0.00
2023-03-11T03:38:34.729Z,0.00
2023-03-11T03:38:57.230Z,0.00
2023-03-11T03:39:30.709Z,0.00
2023-03-11T03:40:03.583Z,0.00
2023-03-11T03:40:33.901Z,0.00
2023-03-11T03:41:05.399Z,0.00
2023-03-11T03:41:37.236Z,0.00
2023-03-11T03:42:09.265Z,0.00
2023-03-11T03:42:35.746Z,0.00
2023-03-11T03:42:57.243Z,0.00
2023-03-11T03:43:29.262Z,0.00
2023-03-11T03:44:01.300Z,0.00
2023-03-11T03:44:33.461Z,0.00
2023-03-11T03:45:05.777Z,0.00
2023-03-11T03:45:38.461Z,0.00
2023-03-11T03:46:10.029Z,0.00
2023-03-11T03:46:34.813Z,0.00
2023-03-11T03:46:57.233Z,0.00
2023-03-11T03:47:29.343Z,0.00
2023-03-11T03:48:01.248Z,0.00
2023-03-11T03:48:33.500Z,0.00
2023-03-11T03:49:05.252Z,0.00
2023-03-11T03:49:37.237Z,0.00
2023-03-11T03:50:09.584Z,0.00
2023-03-11T03:50:34.781Z,0.00
2023-03-11T03:50:58.166Z,0.00
2023-03-11T03:51:29.278Z,0.00
2023-03-11T03:52:02.682Z,0.00
2023-03-11T03:52:33.439Z,0.00
2023-03-11T03:53:05.289Z,0.00
2023-03-11T03:53:37.534Z,0.00
2023-03-11T03:54:09.279Z,0.00
2023-03-11T03:54:34.749Z,0.00
2023-03-11T03:54:57.222Z,0.00
2023-03-11T03:55:29.533Z,0.00
2023-03-11T03:56:01.236Z,0.00
2023-03-11T03:56:33.513Z,0.00
2023-03-11T03:57:05.234Z,0.00
2023-03-11T03:57:37.239Z,0.00
2023-03-11T03:58:09.266Z,0.00
2023-03-11T03:58:34.763Z,0.00
2023-03-11T03:58:57.299Z,0.00
2023-03-11T03:59:29.301Z,0.00
2023-03-11T04:00:04.121Z,0.00
2023-03-11T04:00:33.487Z,0.00
2023-03-11T04:01:05.293Z,0.00
2023-03-11T04:01:38.057Z,0.00
2023-03-11T04:02:09.338Z,0.00
2023-03-11T04:02:34.976Z,0.00
2023-03-11T04:02:57.296Z,0.00
2023-03-11T04:03:29.305Z,0.00
2023-03-11T04:04:01.622Z,0.00
2023-03-11T04:04:34.051Z,0.00
2023-03-11T04:05:05.564Z,0.00
2023-03-11T04:05:37.246Z,0.00
2023-03-11T04:06:09.228Z,0.00
2023-03-11T04:06:35.251Z,0.00
2023-03-11T04:06:57.265Z,0.00
2023-03-11T04:07:29.287Z,0.00
2023-03-11T04:08:02.237Z,0.00
2023-03-11T04:08:33.517Z,0.00
2023-03-11T04:09:05.356Z,0.00
2023-03-11T04:09:37.316Z,0.00
2023-03-11T04:10:09.660Z,0.00
2023-03-11T04:10:34.767Z,0.00
2023-03-11T04:10:57.631Z,0.00
2023-03-11T04:11:29.293Z,0.00
2023-03-11T04:12:01.264Z,0.00
2023-03-11T04:12:33.705Z,0.00
2023-03-11T04:13:05.253Z,0.00
2023-03-11T04:13:37.273Z,0.00
2023-03-11T04:14:09.280Z,0.00
2023-03-11T04:14:34.743Z,0.00
2023-03-11T04:14:57.242Z,0.00
2023-03-11T04:15:29.820Z,0.00
2023-03-11T04:16:03.662Z,0.00
2023-03-11T04:16:33.561Z,0.00
2023-03-11T04:17:05.332Z,0.00
2023-03-11T04:17:38.087Z,0.00
2023-03-11T04:18:09.334Z,0.00
2023-03-11T04:18:34.750Z,0.00
2023-03-11T04:18:57.275Z,0.00
2023-03-11T04:19:29.275Z,0.00
2023-03-11T04:20:03.568Z,0.00
2023-03-11T04:20:34.033Z,0.00
2023-03-11T04:21:05.235Z,0.00
2023-03-11T04:21:37.322Z,0.00
2023-03-11T04:22:09.272Z,0.00
2023-03-11T04:22:34.949Z,0.00
2023-03-11T04:22:57.291Z,0.00
2023-03-11T04:23:29.287Z,0.00
2023-03-11T04:24:02.042Z,0.00
2023-03-11T04:24:33.564Z,0.00
2023-03-11T04:25:05.622Z,0.00
2023-03-11T04:25:37.263Z,0.00
2023-03-11T04:26:10.002Z,0.00
2023-03-11T04:26:34.753Z,0.00
2023-03-11T04:26:57.284Z,0.00
2023-03-11T04:27:29.261Z,0.00
2023-03-11T04:28:01.289Z,0.00
2023-03-11T04:28:33.587Z,0.00
2023-03-11T04:29:05.298Z,0.00
2023-03-11T04:29:37.306Z,0.00
2023-03-11T04:30:11.542Z,0.00
2023-03-11T04:30:34.807Z,0.00
2023-03-11T04:30:57.602Z,0.00
2023-03-11T04:31:29.302Z,0.00
2023-03-11T04:32:01.282Z,0.00
2023-03-11T04:32:33.699Z,0.00
2023-03-11T04:33:05.335Z,0.00
2023-03-11T04:33:38.898Z,0.00
2023-03-11T04:34:09.898Z,0.00
2023-03-11T04:34:34.737Z,0.00
2023-03-11T04:34:57.292Z,0.00
2023-03-11T04:35:29.597Z,0.00
2023-03-11T04:36:01.322Z,0.00
2023-03-11T04:36:33.569Z,0.00
2023-03-11T04:37:05.269Z,0.00
2023-03-11T04:37:37.285Z,0.00
2023-03-11T04:38:09.265Z,0.00
2023-03-11T04:38:35.167Z,0.00
2023-03-11T04:38:57.312Z,0.00
2023-03-11T04:39:29.318Z,0.00
2023-03-11T04:40:03.901Z,0.00
2023-03-11T04:40:33.584Z,0.00
2023-03-11T04:41:05.980Z,0.00
2023-03-11T04:41:37.426Z,0.00
2023-03-11T04:42:09.414Z,0.00
2023-03-11T04:42:34.746Z,0.00
2023-03-11T04:42:57.264Z,0.00
2023-03-11T04:43:29.298Z,0.00
2023-03-11T04:44:01.293Z,0.00
2023-03-11T04:44:34.012Z,0.00
2023-03-11T04:45:05.870Z,0.00
2023-03-11T04:45:37.787Z,0.00
2023-03-11T04:46:09.581Z,0.00
2023-03-11T04:46:34.764Z,0.00
2023-03-11T04:46:57.286Z,0.00
2023-03-11T04:47:29.298Z,0.00
2023-03-11T04:48:01.327Z,0.00
2023-03-11T04:48:33.914Z,0.00
2023-03-11T04:49:05.471Z,0.00
2023-03-11T04:49:39.129Z,0.00
2023-03-11T04:50:09.642Z,0.00
2023-03-11T04:50:34.739Z,0.00
2023-03-11T04:50:57.530Z,0.00
2023-03-11T04:51:29.329Z,0.00
2023-03-11T04:52:01.317Z,0.00
2023-03-11T04:52:33.670Z,0.00
2023-03-11T04:53:05.324Z,0.00
2023-03-11T04:53:37.315Z,0.00
2023-03-11T04:54:09.301Z,0.00
2023-03-11T04:54:34.755Z,0.00
2023-03-11T04:54:57.310Z,0.00
2023-03-11T04:55:29.569Z,0.00
2023-03-11T04:56:02.934Z,0.00
2023-03-11T04:56:33.613Z,0.00
2023-03-11T04:57:05.318Z,0.00
2023-03-11T04:57:37.299Z,0.00
2023-03-11T04:58:09.322Z,0.00
2023-03-11T04:58:34.729Z,0.00
2023-03-11T04:58:57.266Z,0.00
2023-03-11T04:59:29.316Z,0.00
2023-03-11T05:00:04.248Z,0.00
2023-03-11T05:00:33.683Z,0.00
2023-03-11T05:01:05.346Z,0.00
2023-03-11T05:01:37.437Z,0.00
2023-03-11T05:02:09.685Z,0.00
2023-03-11T05:02:34.192Z,0.00
2023-03-11T05:02:56.962Z,0.00
2023-03-11T05:03:29.040Z,0.00
2023-03-11T05:04:00.881Z,0.00
2023-03-11T05:04:32.949Z,0.00
2023-03-11T05:05:05.480Z,0.00
2023-03-11T05:05:37.649Z,0.00
2023-03-11T05:06:09.006Z,0.00
2023-03-11T05:06:35.072Z,0.00
2023-03-11T05:06:57.508Z,0.00
2023-03-11T05:07:29.409Z,0.00
2023-03-11T05:08:01.346Z,0.00
2023-03-11T05:08:33.310Z,0.00
2023-03-11T05:09:05.272Z,0.00
2023-03-11T05:09:37.300Z,0.00
2023-03-11T05:10:09.634Z,0.00
2023-03-11T05:10:34.726Z,0.00
2023-03-11T05:10:57.913Z,0.00
2023-03-11T05:11:29.397Z,0.00
2023-03-11T05:12:03.133Z,0.00
2023-03-11T05:12:33.327Z,0.00
2023-03-11T05:13:05.351Z,0.00
2023-03-11T05:13:37.358Z,0.00
2023-03-11T05:14:09.881Z,0.00
2023-03-11T05:14:34.736Z,0.00
2023-03-11T05:14:57.276Z,0.00
2023-03-11T05:15:29.885Z,0.00
2023-03-11T05:16:03.037Z,0.00
2023-03-11T05:16:33.303Z,0.00
2023-03-11T05:17:05.346Z,0.00
2023-03-11T05:17:37.337Z,0.00
2023-03-11T05:18:09.916Z,0.00
2023-03-11T05:18:34.739Z,0.00
2023-03-11T05:18:57.311Z,0.00
2023-03-11T05:19:29.352Z,0.00
2023-03-11T05:20:03.381Z,0.00
2023-03-11T05:20:34.241Z,0.00
2023-03-11T05:21:05.329Z,0.00
2023-03-11T05:21:39.166Z,0.00
2023-03-11T05:22:09.443Z,0.00
2023-03-11T05:22:34.751Z,0.00
2023-03-11T05:22:57.301Z,0.00
2023-03-11T05:23:29.311Z,0.00
2023-03-11T05:24:01.312Z,0.00
2023-03-11T05:24:33.289Z,0.00
2023-03-11T05:25:05.606Z,0.00
2023-03-11T05:25:37.304Z,0.00
2023-03-11T05:26:09.374Z,0.00
2023-03-11T05:26:34.736Z,0.00
2023-03-11T05:26:57.351Z,0.00
2023-03-11T05:27:29.312Z,0.00
2023-03-11T05:28:02.163Z,0.00
2023-03-11T05:28:33.880Z,0.00
2023-03-11T05:29:05.331Z,0.00
2023-03-11T05:29:37.315Z,0.00
2023-03-11T05:30:11.463Z,0.00
2023-03-11T05:30:35.598Z,0.00
2023-03-11T05:30:57.609Z,0.00
2023-03-11T05:31:29.409Z,0.00
2023-03-11T05:32:01.324Z,0.00
2023-03-11T05:32:33.382Z,0.00
2023-03-11T05:33:05.338Z,0.00
2023-03-11T05:33:37.317Z,0.00
2023-03-11T05:34:09.388Z,0.00
2023-03-11T05:34:34.719Z,0.00
2023-03-11T05:34:57.361Z,0.00
2023-03-11T05:35:29.694Z,0.00
2023-03-11T05:36:01.412Z,0.00
2023-03-11T05:36:33.378Z,0.00
2023-03-11T05:37:05.375Z,0.00
2023-03-11T05:37:37.638Z,0.00
2023-03-11T05:38:09.394Z,0.00
2023-03-11T05:38:34.704Z,0.00
2023-03-11T05:38:57.492Z,0.00
2023-03-11T05:39:30.609Z,0.00
2023-03-11T05:40:03.190Z,0.00
2023-03-11T05:40:33.324Z,0.00
2023-03-11T05:41:05.321Z,0.00
2023-03-11T05:41:37.329Z,0.00
2023-03-11T05:42:09.442Z,0.00
2023-03-11T05:42:35.626Z,0.00
2023-03-11T05:42:57.333Z,0.00
2023-03-11T05:43:29.397Z,0.00
2023-03-11T05:44:01.357Z,0.00
2023-03-11T05:44:33.346Z,0.00
2023-03-11T05:45:05.929Z,0.00
2023-03-11T05:45:38.187Z,0.00
2023-03-11T05:46:10.104Z,0.00
2023-03-11T05:46:34.916Z,0.00
2023-03-11T05:46:57.422Z,0.36
2023-03-11T05:47:29.395Z,0.00
2023-03-11T05:48:01.664Z,0.36
2023-03-11T05:48:33.479Z,0.85
2023-03-11T05:49:05.372Z,0.36
2023-03-11T05:49:37.460Z,0.85
2023-03-11T05:50:09.863Z,1.22
2023-03-11T05:50:35.052Z,1.22
2023-03-11T05:50:57.662Z,0.85
2023-03-11T05:51:29.502Z,1.71
2023-03-11T05:52:02.235Z,1.71
2023-03-11T05:52:33.536Z,1.71
2023-03-11T05:53:05.431Z,1.71
2023-03-11T05:53:37.476Z,1.71
2023-03-11T05:54:10.047Z,1.71
2023-03-11T05:54:34.839Z,2.57
2023-03-11T05:54:57.861Z,2.57
2023-03-11T05:55:29.822Z,2.57
2023-03-11T05:56:01.476Z,2.57
2023-03-11T05:56:33.458Z,2.94
2023-03-11T05:57:05.477Z,2.94
2023-03-11T05:57:37.507Z,2.94
2023-03-11T05:58:09.542Z,2.94
2023-03-11T05:58:34.962Z,2.94
2023-03-11T05:58:57.469Z,3.43
2023-03-11T05:59:29.597Z,4.28
2023-03-11T06:00:03.828Z,4.77
2023-03-11T06:00:33.560Z,4.28
2023-03-11T06:01:05.465Z,4.28
2023-03-11T06:01:38.324Z,4.28
2023-03-11T06:02:09.606Z,4.77
2023-03-11T06:02:35.471Z,4.28
2023-03-11T06:02:57.448Z,4.77
2023-03-11T06:03:29.475Z,5.63
2023-03-11T06:04:01.671Z,5.63
2023-03-11T06:04:33.594Z,4.77
2023-03-11T06:05:08.303Z,5.63
2023-03-11T06:05:37.514Z,5.63
2023-03-11T06:06:10.286Z,6.48
2023-03-11T06:06:34.869Z,5.99
2023-03-11T06:06:57.490Z,6.85
2023-03-11T06:07:29.616Z,6.48
2023-03-11T06:08:02.316Z,6.85
2023-03-11T06:08:33.487Z,7.70
2023-03-11T06:09:05.516Z,7.34
2023-03-11T06:09:37.529Z,8.19
2023-03-11T06:10:09.909Z,7.34
2023-03-11T06:10:34.861Z,7.70
2023-03-11T06:10:58.109Z,8.56
2023-03-11T06:11:29.460Z,7.70
2023-03-11T06:12:01.500Z,8.56
2023-03-11T06:12:33.487Z,9.54
2023-03-11T06:13:05.529Z,9.91
2023-03-11T06:13:37.484Z,9.54
2023-03-11T06:14:09.505Z,9.91
2023-03-11T06:14:34.883Z,9.54
2023-03-11T06:14:57.584Z,10.77
2023-03-11T06:15:30.520Z,10.77
2023-03-11T06:16:03.004Z,11.25
2023-03-11T06:16:34.235Z,12.97
2023-03-11T06:17:05.518Z,12.97
2023-03-11T06:17:38.342Z,13.82
2023-03-11T06:18:09.515Z,13.33
2023-03-11T06:18:34.871Z,13.33
2023-03-11T06:18:57.472Z,12.97
2023-03-11T06:19:29.510Z,13.82
2023-03-11T06:20:03.197Z,14.68
2023-03-11T06:20:33.961Z,15.53
2023-03-11T06:21:05.490Z,14.68
2023-03-11T06:21:37.486Z,15.53
2023-03-11T06:22:09.521Z,15.17
2023-03-11T06:22:34.853Z,14.68
2023-03-11T06:22:57.421Z,15.53
2023-03-11T06:23:29.508Z,16.39
2023-03-11T06:24:02.407Z,17.73
2023-03-11T06:24:33.494Z,17.25
2023-03-11T06:25:05.771Z,18.60
2023-03-11T06:25:37.474Z,19.08
2023-03-11T06:26:09.568Z,19.08
2023-03-11T06:26:34.859Z,19.08
2023-03-11T06:26:57.496Z,19.08
2023-03-11T06:27:29.501Z,20.80
2023-03-11T06:28:01.595Z,21.16
2023-03-11T06:28:33.481Z,22.02
2023-03-11T06:29:05.477Z,22.51
2023-03-11T06:29:37.813Z,23.36
2023-03-11T06:30:11.546Z,23.85
2023-03-11T06:30:34.976Z,23.36
2023-03-11T06:30:57.690Z,23.36
2023-03-11T06:31:29.655Z,22.87
2023-03-11T06:32:01.593Z,22.51
2023-03-11T06:32:33.591Z,22.02
2023-03-11T06:33:05.661Z,22.87
2023-03-11T06:33:38.192Z,22.02
2023-03-11T06:34:09.498Z,22.51
2023-03-11T06:34:34.836Z,21.65
2023-03-11T06:34:57.940Z,22.51
2023-03-11T06:35:29.800Z,22.02
2023-03-11T06:36:01.648Z,22.51
2023-03-11T06:36:33.448Z,21.16
2023-03-11T06:37:05.450Z,20.31
2023-03-11T06:37:37.492Z,19.94
2023-03-11T06:38:09.582Z,19.45